Berdsk, Russia
Current Conditions -  °F | °C
As of 12:30 AM on Saturday 22 Nov 2014 (Local Time) from UNNT Reporting Station
Blowing Snow Blowing Snow  
Wind Chill: 12°   Ceiling: 2600
Heat Index: 25°   Visibility: 6mi
Dew Point: 21°   Wind: 16mph
Humidity: 86%   Direction: 230°SW
Pressure: 29.8"   Gusts: NA
Location:  54.76°N, 83.08°E
Report Text: UNNT 211730Z 23007MPS 9999 DRSN OVC026 M04/M06 Q1009 2549014516490150 NOSIG RMK QFE747/0996
Loading
Personal Weather Stations






























Interactive Weather Map New forecast layout! Learn more

10-Day Weather Forecast

Advertisements
Track Severe Weather on mobile